createdAt,value
2018-12-30T00:01:36.682Z,2.70
2018-12-30T00:04:04.612Z,2.70
2018-12-30T00:06:32.592Z,2.60
2018-12-30T00:09:00.608Z,2.60
2018-12-30T00:11:28.475Z,2.50
2018-12-30T00:13:56.088Z,2.40
2018-12-30T00:16:23.707Z,2.40
2018-12-30T00:18:51.392Z,2.50
2018-12-30T00:21:19.047Z,2.40
2018-12-30T00:23:46.792Z,2.40
2018-12-30T00:26:14.672Z,2.30
2018-12-30T00:28:42.372Z,2.30
2018-12-30T00:31:09.975Z,2.30
2018-12-30T00:33:37.591Z,2.30
2018-12-30T00:36:05.225Z,2.30
2018-12-30T00:38:32.876Z,2.40
2018-12-30T00:41:00.540Z,2.40
2018-12-30T00:43:28.199Z,2.40
2018-12-30T00:45:55.867Z,2.50
2018-12-30T00:48:23.569Z,2.50
2018-12-30T00:50:51.635Z,2.80
2018-12-30T00:53:19.591Z,2.80
2018-12-30T00:55:47.244Z,2.70
2018-12-30T00:58:15.056Z,2.70
2018-12-30T01:00:42.812Z,2.60
2018-12-30T01:03:10.404Z,2.60
2018-12-30T01:05:38.047Z,2.60
2018-12-30T01:08:05.652Z,2.60
2018-12-30T01:10:33.264Z,2.70
2018-12-30T01:13:00.830Z,2.70
2018-12-30T01:15:28.428Z,2.70
2018-12-30T01:17:56.319Z,2.80
2018-12-30T01:20:23.879Z,2.80
2018-12-30T01:22:51.540Z,2.80
2018-12-30T01:25:19.153Z,2.70
2018-12-30T01:27:46.764Z,2.70
2018-12-30T01:30:14.534Z,2.80
2018-12-30T01:32:42.582Z,2.80
2018-12-30T01:35:10.164Z,2.70
2018-12-30T01:37:37.880Z,2.60
2018-12-30T01:40:05.504Z,2.60
2018-12-30T01:42:33.092Z,2.60
2018-12-30T01:45:00.951Z,2.60
2018-12-30T01:47:28.743Z,2.60
2018-12-30T01:49:56.339Z,2.60
2018-12-30T01:52:23.928Z,2.60
2018-12-30T01:54:51.652Z,2.50
2018-12-30T01:57:19.284Z,2.60
2018-12-30T01:59:46.901Z,2.50
2018-12-30T02:02:14.968Z,2.50
2018-12-30T02:04:42.680Z,2.50
2018-12-30T02:07:10.288Z,2.50
2018-12-30T02:09:37.928Z,2.50
2018-12-30T02:12:05.544Z,2.50
2018-12-30T02:14:33.456Z,2.50
2018-12-30T02:17:04.724Z,2.50
2018-12-30T02:19:32.337Z,2.60
2018-12-30T02:22:07.228Z,2.50
2018-12-30T02:24:35.933Z,2.60
2018-12-30T02:27:03.848Z,2.70
2018-12-30T02:29:31.478Z,2.80
2018-12-30T02:31:59.052Z,2.80
2018-12-30T02:34:26.655Z,2.80
2018-12-30T02:36:54.261Z,2.80
2018-12-30T02:39:21.942Z,2.90
2018-12-30T02:41:49.557Z,3.20
2018-12-30T02:44:17.232Z,3.10
2018-12-30T02:46:45.056Z,3.20
2018-12-30T02:49:12.803Z,3.00
2018-12-30T02:51:40.375Z,2.80
2018-12-30T02:54:08.161Z,2.70
2018-12-30T02:56:35.734Z,2.70
2018-12-30T02:59:03.366Z,2.90
2018-12-30T03:01:30.966Z,2.80
2018-12-30T03:03:58.550Z,2.80
2018-12-30T03:06:26.400Z,2.80
2018-12-30T03:08:54.009Z,2.70
2018-12-30T03:11:21.587Z,2.70
2018-12-30T03:13:49.221Z,2.70
2018-12-30T03:16:16.889Z,2.70
2018-12-30T03:18:44.468Z,2.70
2018-12-30T03:21:12.082Z,2.60
2018-12-30T03:23:39.689Z,2.50
2018-12-30T03:26:07.265Z,2.50
2018-12-30T03:28:34.920Z,2.50
2018-12-30T03:31:02.567Z,2.50
2018-12-30T03:33:30.215Z,2.50
2018-12-30T03:35:57.828Z,2.50
2018-12-30T03:38:25.395Z,2.50
2018-12-30T03:40:53.054Z,2.50
2018-12-30T03:43:20.767Z,2.50
2018-12-30T03:45:48.685Z,2.50
2018-12-30T03:48:16.286Z,2.60
2018-12-30T03:50:43.884Z,2.70
2018-12-30T03:53:11.456Z,2.60
2018-12-30T03:55:39.083Z,2.60
2018-12-30T03:58:06.743Z,2.60
2018-12-30T04:00:34.335Z,2.70
2018-12-30T04:03:01.956Z,2.70
2018-12-30T04:05:29.541Z,2.70
2018-12-30T04:07:57.262Z,2.70
2018-12-30T04:10:24.883Z,2.70
2018-12-30T04:12:52.513Z,2.70
2018-12-30T04:15:20.137Z,2.70
2018-12-30T04:17:47.850Z,2.70
2018-12-30T04:20:15.536Z,2.70
2018-12-30T04:22:43.143Z,2.70
2018-12-30T04:25:10.745Z,2.70
2018-12-30T04:27:38.387Z,2.70
2018-12-30T04:30:06.386Z,2.70
2018-12-30T04:32:33.993Z,2.70
2018-12-30T04:35:01.589Z,2.60
2018-12-30T04:37:29.521Z,2.60
2018-12-30T04:39:57.123Z,2.60
2018-12-30T04:42:24.739Z,2.60
2018-12-30T04:44:53.601Z,2.60
2018-12-30T04:47:23.572Z,2.60
2018-12-30T04:49:51.161Z,2.60
2018-12-30T04:52:25.606Z,2.70
2018-12-30T04:54:48.404Z,2.70
2018-12-30T04:57:15.988Z,2.70
2018-12-30T04:59:43.627Z,2.70
2018-12-30T05:02:11.204Z,2.80
2018-12-30T05:04:38.793Z,2.70
2018-12-30T05:07:06.417Z,2.70
2018-12-30T05:09:34.077Z,2.80
2018-12-30T05:12:01.663Z,2.80
2018-12-30T05:14:29.297Z,2.80
2018-12-30T05:16:56.899Z,2.90
2018-12-30T05:19:24.496Z,2.90
2018-12-30T05:21:52.097Z,2.80
2018-12-30T05:24:19.835Z,2.80
2018-12-30T05:26:47.621Z,2.90
2018-12-30T05:29:15.293Z,2.90
2018-12-30T05:31:42.920Z,2.90
2018-12-30T05:34:10.573Z,2.90
2018-12-30T05:36:38.279Z,2.90
2018-12-30T05:39:06.163Z,2.90
2018-12-30T05:41:33.763Z,2.90
2018-12-30T05:44:01.384Z,2.90
2018-12-30T05:46:29.019Z,3.00
2018-12-30T05:48:56.598Z,3.00
2018-12-30T05:51:24.227Z,3.00
2018-12-30T05:53:51.828Z,3.00
2018-12-30T05:56:19.492Z,3.00
2018-12-30T05:58:47.463Z,3.00
2018-12-30T06:01:15.086Z,3.00
2018-12-30T06:03:42.708Z,3.00
2018-12-30T06:06:10.296Z,3.00
2018-12-30T06:08:37.943Z,3.10
2018-12-30T06:11:05.504Z,3.00
2018-12-30T06:13:33.107Z,3.00
2018-12-30T06:16:00.688Z,3.00
2018-12-30T06:18:28.351Z,3.00
2018-12-30T06:20:55.977Z,3.00
2018-12-30T06:23:23.585Z,3.10
2018-12-30T06:25:51.519Z,3.10
2018-12-30T06:28:19.373Z,3.10
2018-12-30T06:30:47.047Z,3.10
2018-12-30T06:33:14.709Z,3.10
2018-12-30T06:35:42.266Z,3.10
2018-12-30T06:38:09.894Z,3.10
2018-12-30T06:40:37.481Z,3.20
2018-12-30T06:43:05.364Z,3.20
2018-12-30T06:45:32.960Z,3.20
2018-12-30T06:48:00.528Z,3.20
2018-12-30T06:50:28.160Z,3.20
2018-12-30T06:52:57.787Z,3.20
2018-12-30T06:55:25.176Z,3.30
2018-12-30T06:57:52.761Z,3.30
2018-12-30T07:00:20.436Z,3.30
2018-12-30T07:02:48.315Z,3.40
2018-12-30T07:05:16.034Z,3.50
2018-12-30T07:07:43.639Z,3.50
2018-12-30T07:10:11.233Z,3.60
2018-12-30T07:12:38.839Z,3.70
2018-12-30T07:15:06.431Z,3.70
2018-12-30T07:17:34.041Z,3.80
2018-12-30T07:20:01.711Z,3.80
2018-12-30T07:22:29.316Z,3.90
2018-12-30T07:24:57.187Z,3.90
2018-12-30T07:27:24.783Z,4.00
2018-12-30T07:29:52.427Z,4.00
2018-12-30T07:32:20.113Z,4.20
2018-12-30T07:34:47.732Z,4.30
2018-12-30T07:37:15.342Z,4.40
2018-12-30T07:39:42.904Z,4.60
2018-12-30T07:42:10.520Z,4.60
2018-12-30T07:44:38.144Z,4.60
2018-12-30T07:47:05.735Z,4.60
2018-12-30T07:49:33.317Z,4.60
2018-12-30T07:52:00.920Z,4.60
2018-12-30T07:54:28.530Z,4.60
2018-12-30T07:56:56.115Z,4.60
2018-12-30T07:59:23.811Z,4.70
2018-12-30T08:01:51.473Z,4.70
2018-12-30T08:04:19.073Z,4.80
2018-12-30T08:06:46.719Z,4.80
2018-12-30T08:09:14.384Z,4.80
2018-12-30T08:11:42.020Z,4.90
2018-12-30T08:14:09.677Z,5.00
2018-12-30T08:16:37.640Z,5.20
2018-12-30T08:19:05.236Z,5.30
2018-12-30T08:21:33.107Z,5.30
2018-12-30T08:24:00.707Z,5.40
2018-12-30T08:26:28.284Z,5.40
2018-12-30T08:28:55.931Z,5.40
2018-12-30T08:31:23.571Z,5.30
2018-12-30T08:33:51.266Z,5.30
2018-12-30T08:36:19.063Z,5.10
2018-12-30T08:38:46.735Z,5.30
2018-12-30T08:41:14.595Z,5.20
2018-12-30T08:43:42.235Z,5.20
2018-12-30T08:46:09.920Z,5.20
2018-12-30T08:48:37.565Z,5.40
2018-12-30T08:51:05.187Z,5.40
2018-12-30T08:53:32.908Z,5.40
2018-12-30T08:56:00.648Z,5.40
2018-12-30T08:58:28.288Z,5.30
2018-12-30T09:00:57.219Z,5.30
2018-12-30T09:03:24.843Z,5.30
2018-12-30T09:05:52.545Z,5.20
2018-12-30T09:08:20.308Z,5.30
2018-12-30T09:10:48.121Z,5.30
2018-12-30T09:13:15.771Z,5.20
2018-12-30T09:15:43.357Z,5.20
2018-12-30T09:18:10.980Z,5.30
2018-12-30T09:20:38.565Z,5.30
2018-12-30T09:23:06.425Z,5.20
2018-12-30T09:25:34.040Z,5.20
2018-12-30T09:28:01.684Z,5.20
2018-12-30T09:30:30.670Z,5.20
2018-12-30T09:32:58.328Z,5.20
2018-12-30T09:35:25.935Z,5.20
2018-12-30T09:37:53.576Z,5.20
2018-12-30T09:40:21.235Z,5.20
2018-12-30T09:42:48.956Z,5.20
2018-12-30T09:45:16.585Z,5.20
2018-12-30T09:47:44.508Z,5.20
2018-12-30T09:50:12.108Z,5.30
2018-12-30T09:52:39.739Z,5.30
2018-12-30T09:55:08.636Z,5.30
2018-12-30T09:57:36.248Z,5.30
2018-12-30T10:00:04.129Z,5.30
2018-12-30T10:02:31.794Z,5.40
2018-12-30T10:04:59.408Z,5.40
2018-12-30T10:07:27.035Z,5.40
2018-12-30T10:09:54.679Z,5.40
2018-12-30T10:12:22.312Z,5.50
2018-12-30T10:14:50.801Z,5.50
2018-12-30T10:17:18.387Z,5.50
2018-12-30T10:19:46.162Z,5.60
2018-12-30T10:22:13.833Z,5.60
2018-12-30T10:24:41.459Z,5.70
2018-12-30T10:27:09.156Z,5.70
2018-12-30T10:29:36.803Z,5.70
2018-12-30T10:32:04.456Z,5.80
2018-12-30T10:34:32.092Z,5.80
2018-12-30T10:36:59.675Z,5.80
2018-12-30T10:39:27.311Z,5.90
2018-12-30T10:41:54.952Z,5.90
2018-12-30T10:44:22.556Z,6.00
2018-12-30T10:46:50.285Z,6.00
2018-12-30T10:49:17.939Z,6.00
2018-12-30T10:51:45.492Z,6.00
2018-12-30T10:54:13.197Z,6.10
2018-12-30T10:56:40.803Z,6.10
2018-12-30T10:59:08.483Z,6.10
2018-12-30T11:01:36.103Z,6.20
2018-12-30T11:04:03.730Z,6.20
2018-12-30T11:06:31.356Z,6.20
2018-12-30T11:08:59.294Z,6.20
2018-12-30T11:11:28.441Z,6.20
2018-12-30T11:13:56.011Z,6.20
2018-12-30T11:16:23.647Z,6.30
2018-12-30T11:18:51.416Z,6.30
2018-12-30T11:21:19.096Z,6.30
2018-12-30T11:23:46.676Z,6.40
2018-12-30T11:26:14.319Z,6.40
2018-12-30T11:28:41.932Z,6.50
2018-12-30T11:31:09.652Z,6.50
2018-12-30T11:33:37.328Z,6.50
2018-12-30T11:36:04.896Z,6.60
2018-12-30T11:38:32.503Z,6.70
2018-12-30T11:41:00.672Z,6.70
2018-12-30T11:43:28.297Z,6.70
2018-12-30T11:45:55.967Z,6.70
2018-12-30T11:48:23.601Z,6.80
2018-12-30T11:50:51.280Z,6.70
2018-12-30T11:53:18.943Z,6.70
2018-12-30T11:55:46.524Z,6.70
2018-12-30T11:58:14.316Z,6.70
2018-12-30T12:00:41.974Z,6.70
2018-12-30T12:03:09.632Z,6.80
2018-12-30T12:05:37.212Z,6.80
2018-12-30T12:08:05.532Z,6.80
2018-12-30T12:10:33.147Z,6.70
2018-12-30T12:13:01.176Z,6.70
2018-12-30T12:15:29.099Z,6.70
2018-12-30T12:17:56.715Z,6.70
2018-12-30T12:20:26.463Z,6.60
2018-12-30T12:22:54.160Z,6.50
2018-12-30T12:25:21.781Z,6.50
2018-12-30T12:27:49.504Z,6.50
2018-12-30T12:30:17.040Z,6.50
2018-12-30T12:32:44.734Z,6.50
2018-12-30T12:35:12.533Z,6.50
2018-12-30T12:37:40.290Z,6.50
2018-12-30T12:40:07.849Z,6.50
2018-12-30T12:42:35.446Z,6.50
2018-12-30T12:45:03.784Z,6.50
2018-12-30T12:47:31.361Z,6.50
2018-12-30T12:49:59.027Z,6.50
2018-12-30T12:52:26.615Z,6.60
2018-12-30T12:54:54.311Z,6.60
2018-12-30T12:57:22.192Z,6.50
2018-12-30T12:59:50.000Z,6.60
2018-12-30T13:02:17.685Z,6.50
2018-12-30T13:04:45.304Z,6.50
2018-12-30T13:07:12.984Z,6.60
2018-12-30T13:09:40.678Z,6.50
2018-12-30T13:12:08.294Z,6.50
2018-12-30T13:14:35.933Z,6.50
2018-12-30T13:17:03.529Z,6.50
2018-12-30T13:19:31.405Z,6.50
2018-12-30T13:21:59.271Z,6.50
2018-12-30T13:24:26.849Z,6.50
2018-12-30T13:26:54.557Z,6.50
2018-12-30T13:29:22.171Z,6.50
2018-12-30T13:31:49.849Z,6.40
2018-12-30T13:34:18.981Z,6.40
2018-12-30T13:36:46.687Z,6.40
2018-12-30T13:39:14.340Z,6.40
2018-12-30T13:41:41.967Z,6.40
2018-12-30T13:44:09.544Z,6.40
2018-12-30T13:46:37.127Z,6.40
2018-12-30T13:49:04.770Z,6.30
2018-12-30T13:51:32.374Z,6.30
2018-12-30T13:54:00.032Z,6.30
2018-12-30T13:56:28.972Z,6.20
2018-12-30T13:58:56.572Z,6.40
2018-12-30T14:01:39.504Z,6.40
2018-12-30T14:04:15.397Z,6.30
2018-12-30T14:06:43.008Z,6.30
2018-12-30T14:09:10.668Z,6.30
2018-12-30T14:11:38.308Z,6.20
2018-12-30T14:14:05.944Z,6.30
2018-12-30T14:16:33.636Z,6.30
2018-12-30T14:19:01.231Z,6.30
2018-12-30T14:21:28.876Z,6.30
2018-12-30T14:23:56.568Z,6.30
2018-12-30T14:26:24.357Z,6.30
2018-12-30T14:28:52.107Z,6.30
2018-12-30T14:31:19.701Z,6.20
2018-12-30T14:33:47.356Z,6.20
2018-12-30T14:36:15.036Z,6.20
2018-12-30T14:38:42.645Z,6.20
2018-12-30T14:41:10.239Z,6.20
2018-12-30T14:43:38.437Z,6.20
2018-12-30T14:46:06.047Z,6.10
2018-12-30T14:48:34.368Z,6.00
2018-12-30T14:51:01.984Z,6.00
2018-12-30T14:53:29.611Z,6.00
2018-12-30T14:55:57.243Z,6.00
2018-12-30T14:58:24.989Z,6.00
2018-12-30T15:00:52.632Z,6.00
2018-12-30T15:03:20.305Z,5.90
2018-12-30T15:05:47.972Z,5.90
2018-12-30T15:08:15.569Z,5.80
2018-12-30T15:10:43.193Z,5.80
2018-12-30T15:13:10.804Z,5.80
2018-12-30T15:15:38.484Z,5.80
2018-12-30T15:18:06.114Z,5.80
2018-12-30T15:20:33.781Z,5.90
2018-12-30T15:23:01.405Z,6.40
2018-12-30T15:25:29.044Z,6.30
2018-12-30T15:27:56.788Z,6.20
2018-12-30T15:30:24.447Z,6.00
2018-12-30T15:32:52.139Z,5.90
2018-12-30T15:35:19.793Z,5.80
2018-12-30T15:37:47.388Z,5.80
2018-12-30T15:40:15.113Z,5.70
2018-12-30T15:42:42.736Z,5.60
2018-12-30T15:45:10.340Z,5.60
2018-12-30T15:47:38.003Z,5.60
2018-12-30T15:50:06.890Z,5.50
2018-12-30T15:52:34.530Z,5.60
2018-12-30T15:55:02.144Z,5.70
2018-12-30T15:57:29.865Z,5.60
2018-12-30T15:59:57.526Z,5.50
2018-12-30T16:02:26.296Z,5.50
2018-12-30T16:04:54.368Z,5.40
2018-12-30T16:07:22.027Z,5.40
2018-12-30T16:09:49.607Z,5.40
2018-12-30T16:12:17.242Z,5.40
2018-12-30T16:14:44.836Z,5.40
2018-12-30T16:17:12.551Z,5.30
2018-12-30T16:19:40.213Z,5.30
2018-12-30T16:22:07.837Z,5.30
2018-12-30T16:24:35.472Z,5.30
2018-12-30T16:27:04.579Z,5.40
2018-12-30T16:29:32.295Z,5.40
2018-12-30T16:32:00.225Z,5.30
2018-12-30T16:34:27.791Z,5.30
2018-12-30T16:36:55.517Z,5.30
2018-12-30T16:39:23.149Z,5.30
2018-12-30T16:41:50.851Z,5.30
2018-12-30T16:44:18.457Z,5.20
2018-12-30T16:46:46.044Z,5.20
2018-12-30T16:49:13.886Z,5.20
2018-12-30T16:51:41.500Z,5.20
2018-12-30T16:54:09.222Z,5.20
2018-12-30T16:56:36.826Z,5.20
2018-12-30T16:59:04.572Z,5.20
2018-12-30T17:01:32.187Z,5.20
2018-12-30T17:03:59.804Z,5.20
2018-12-30T17:06:33.892Z,5.20
2018-12-30T17:08:56.937Z,5.10
2018-12-30T17:11:24.682Z,5.10
2018-12-30T17:13:52.224Z,5.10
2018-12-30T17:16:19.873Z,5.10
2018-12-30T17:18:47.504Z,5.10
2018-12-30T17:21:15.136Z,5.10
2018-12-30T17:23:42.724Z,5.10
2018-12-30T17:26:10.336Z,5.10
2018-12-30T17:28:37.960Z,5.20
2018-12-30T17:31:05.549Z,5.40
2018-12-30T17:33:33.195Z,5.50
2018-12-30T17:36:00.770Z,5.60
2018-12-30T17:38:28.427Z,5.60
2018-12-30T17:41:01.539Z,5.70
2018-12-30T17:43:25.577Z,5.60
2018-12-30T17:45:53.357Z,5.60
2018-12-30T17:48:20.966Z,5.60
2018-12-30T17:50:48.697Z,5.40
2018-12-30T17:53:16.321Z,5.20
2018-12-30T17:55:50.569Z,5.10
2018-12-30T17:58:13.484Z,5.10
2018-12-30T18:00:41.086Z,5.10
2018-12-30T18:03:08.692Z,5.10
2018-12-30T18:05:36.381Z,5.00
2018-12-30T18:08:04.019Z,5.00
2018-12-30T18:10:31.638Z,5.10
2018-12-30T18:12:59.700Z,5.10
2018-12-30T18:15:27.364Z,5.00
2018-12-30T18:17:54.997Z,5.10
2018-12-30T18:20:22.643Z,5.00
2018-12-30T18:22:50.432Z,5.10
2018-12-30T18:25:24.556Z,5.00
2018-12-30T18:27:52.190Z,5.10
2018-12-30T18:30:19.793Z,5.20
2018-12-30T18:32:47.448Z,5.20
2018-12-30T18:35:15.328Z,5.10
2018-12-30T18:37:45.248Z,5.10
2018-12-30T18:40:12.908Z,5.20
2018-12-30T18:42:40.532Z,5.10
2018-12-30T18:45:08.415Z,5.40
2018-12-30T18:47:36.105Z,5.60
2018-12-30T18:50:04.075Z,5.60
2018-12-30T18:52:31.700Z,5.60
2018-12-30T18:54:59.326Z,5.70
2018-12-30T18:57:27.044Z,5.80
2018-12-30T18:59:54.680Z,5.70
2018-12-30T19:02:22.329Z,5.60
2018-12-30T19:04:49.949Z,5.60
2018-12-30T19:07:17.537Z,5.60
2018-12-30T19:09:45.230Z,5.50
2018-12-30T19:12:13.213Z,5.40
2018-12-30T19:14:40.780Z,5.20
2018-12-30T19:17:08.382Z,5.30
2018-12-30T19:19:36.456Z,5.30
2018-12-30T19:22:04.320Z,5.30
2018-12-30T19:24:31.908Z,5.20
2018-12-30T19:27:00.848Z,5.20
2018-12-30T19:29:28.448Z,5.20
2018-12-30T19:31:56.096Z,5.30
2018-12-30T19:34:23.838Z,5.40
2018-12-30T19:36:51.489Z,5.30
2018-12-30T19:39:19.092Z,5.30
2018-12-30T19:41:46.672Z,5.40
2018-12-30T19:44:14.328Z,5.40
2018-12-30T19:46:41.900Z,5.40
2018-12-30T19:49:10.410Z,5.40
2018-12-30T19:51:39.128Z,5.40
2018-12-30T19:54:06.749Z,5.50
2018-12-30T19:56:34.358Z,5.40
2018-12-30T19:59:02.240Z,5.40
2018-12-30T20:01:32.678Z,5.40
2018-12-30T20:04:00.227Z,5.40
2018-12-30T20:06:27.821Z,5.30
2018-12-30T20:08:56.458Z,5.30
2018-12-30T20:11:24.492Z,5.30
2018-12-30T20:13:52.059Z,5.30
2018-12-30T20:16:19.644Z,5.30
2018-12-30T20:18:47.260Z,5.30
2018-12-30T20:21:15.012Z,5.40
2018-12-30T20:23:42.631Z,5.40
2018-12-30T20:26:10.244Z,5.40
2018-12-30T20:28:37.809Z,5.40
2018-12-30T20:31:06.629Z,5.40
2018-12-30T20:33:34.228Z,5.40
2018-12-30T20:36:01.844Z,5.50
2018-12-30T20:38:30.050Z,5.50
2018-12-30T20:40:57.640Z,5.50
2018-12-30T20:43:25.381Z,5.50
2018-12-30T20:45:52.980Z,5.50
2018-12-30T20:48:20.568Z,5.50
2018-12-30T20:50:48.178Z,5.50
2018-12-30T20:53:15.748Z,5.50
2018-12-30T20:55:43.623Z,5.50
2018-12-30T20:58:11.208Z,5.50
2018-12-30T21:00:38.881Z,5.50
2018-12-30T21:03:06.542Z,5.50
2018-12-30T21:05:34.147Z,5.40
2018-12-30T21:08:01.723Z,5.40
2018-12-30T21:10:29.376Z,5.40
2018-12-30T21:12:57.029Z,5.40
2018-12-30T21:15:24.758Z,5.40
2018-12-30T21:17:52.339Z,5.50
2018-12-30T21:20:19.932Z,5.40
2018-12-30T21:22:47.528Z,5.40
2018-12-30T21:25:15.131Z,5.40
2018-12-30T21:27:42.713Z,5.40
2018-12-30T21:30:10.308Z,5.30
2018-12-30T21:32:39.521Z,5.40
2018-12-30T21:35:07.153Z,5.30
2018-12-30T21:37:34.824Z,5.30
2018-12-30T21:40:02.464Z,5.30
2018-12-30T21:42:30.111Z,5.20
2018-12-30T21:44:57.816Z,5.20
2018-12-30T21:47:25.448Z,5.20
2018-12-30T21:49:53.225Z,5.20
2018-12-30T21:52:20.843Z,5.20
2018-12-30T21:54:48.439Z,5.10
2018-12-30T21:57:16.094Z,5.10
2018-12-30T21:59:43.702Z,5.10
2018-12-30T22:02:11.317Z,5.10
2018-12-30T22:04:38.905Z,5.10
2018-12-30T22:07:06.647Z,5.10
2018-12-30T22:09:34.220Z,5.10
2018-12-30T22:12:01.812Z,5.10
2018-12-30T22:14:29.392Z,5.10
2018-12-30T22:16:57.032Z,5.10
2018-12-30T22:19:24.680Z,5.10
2018-12-30T22:21:52.296Z,5.10
2018-12-30T22:24:19.957Z,5.10
2018-12-30T22:26:47.601Z,5.10
2018-12-30T22:29:15.265Z,5.10
2018-12-30T22:31:42.869Z,5.20
2018-12-30T22:34:11.910Z,5.20
2018-12-30T22:36:39.599Z,5.20
2018-12-30T22:39:07.372Z,5.20
2018-12-30T22:41:34.996Z,5.20
2018-12-30T22:44:02.691Z,5.20
2018-12-30T22:46:30.320Z,5.20
2018-12-30T22:48:58.057Z,5.20
2018-12-30T22:51:25.733Z,5.20
2018-12-30T22:53:53.316Z,5.10
2018-12-30T22:56:20.932Z,5.10
2018-12-30T22:58:48.524Z,5.10
2018-12-30T23:01:19.398Z,5.10
2018-12-30T23:03:48.159Z,5.10
2018-12-30T23:06:15.749Z,5.10
2018-12-30T23:08:43.495Z,5.10
2018-12-30T23:11:11.332Z,5.10
2018-12-30T23:13:39.265Z,5.10
2018-12-30T23:16:06.960Z,5.10
2018-12-30T23:18:34.588Z,5.10
2018-12-30T23:21:02.253Z,5.10
2018-12-30T23:23:29.835Z,5.10
2018-12-30T23:25:57.511Z,5.10
2018-12-30T23:28:25.152Z,5.10
2018-12-30T23:30:52.766Z,5.00
2018-12-30T23:33:21.735Z,5.00
2018-12-30T23:35:49.608Z,5.10
2018-12-30T23:38:17.322Z,5.10
2018-12-30T23:40:44.971Z,5.00
2018-12-30T23:43:12.684Z,5.00
2018-12-30T23:45:40.277Z,5.00
2018-12-30T23:48:07.939Z,5.00
2018-12-30T23:50:35.588Z,5.00
2018-12-30T23:53:03.207Z,5.00
2018-12-30T23:55:30.971Z,5.00
2018-12-30T23:57:58.719Z,5.00
